x

Dunkirk, Ny (dbln6) Weather Station

11:00pm - Sat 20th Sep 2014 All times are CDT. -5 hours from GMT.

  • Wind
    10mph, 18mph gusts
  • Air Temp 73°f
  • Sea Pressure 1009.3mb
  • Dunkirk, Ny
  • Dunkirk, Ny

More Historic Weather Station data

Upgrade to MSW Pro to gain access to the past 30 days of data for over 8000 Wavebouys and Weather Stations around the globe.

Join Pro

Comparision Forecast

View Surf forecast
   
Sat 09/20 11:00pm 10 18 mph 1009.3mb 73f
10:00pm 11 24 mph 1010.3mb 73f
9:00pm 13 22 mph 1010.5mb 73f
8:00pm 7 13 mph 1010.7mb 72f
7:00pm 6 9 mph 1011mb 73f
6:00pm 6 10 mph 1010.9mb 75f
5:00pm 7 14 mph 1011.6mb 77f
4:00pm 13 21 mph 1011.8mb 78f
3:00pm 10 15 mph 1012.3mb 77f
2:00pm 13 20 mph 1013.1mb 75f
1:00pm 11 16 mph 1013.9mb 75f
12:00pm 10 17 mph 1015.1mb 73f
11:00am 14 18 mph 1016.2mb 72f
10:00am 11 20 mph 1016.9mb 70f
9:00am 8 15 mph 1017.4mb 68f
8:00am 13 22 mph 1017mb 66f
7:00am 8 16 mph 1018.1mb 64f
6:00am 8 15 mph 1017.8mb 63f
5:00am 13 20 mph 1017.3mb 63f
4:00am 9 16 mph 1017.5mb 63f
3:00am 11 20 mph 1017.5mb 63f
2:00am 11 20 mph 1017.9mb 63f
1:00am 13 18 mph 1018.2mb 62f
12:00am 14 21 mph 1018.2mb 62f
Fri 09/19 11:00pm 10 16 mph 1018.8mb 62f
10:00pm 11 17 mph 1018.7mb 62f
9:00pm 5 8 mph 1019.2mb 58f
8:00pm 5
mph
1020.7mb 58f
7:00pm 7 8 mph 1020.8mb 60f
6:00pm 8 9 mph 1021.1mb 62f
5:00pm 8 9 mph 1022mb 62f
4:00pm 8 9 mph 1022.5mb 61f
3:00pm 9 11 mph 1023mb 60f
2:00pm 11 14 mph 1023.5mb 58f
1:00pm 10 13 mph 1024.7mb 57f
12:00pm 7 8 mph 1025.7mb 56f
11:00am 5 7 mph 1026.2mb 55f
10:00am 2 5 mph 1026.4mb 56f
9:00am 7 10 mph 1026.2mb 53f
8:00am 7 11 mph 1026.1mb 50f
7:00am 3 6 mph 1025.9mb 46f
6:00am 6 8 mph 1025.4mb 42f
5:00am 5 7 mph 1025mb 44f
4:00am 2 3 mph 1024.8mb 45f
3:00am 7 8 mph 1024.5mb 46f
2:00am 5 7 mph 1024.3mb 47f
1:00am 6 7 mph 1024.1mb 49f
12:00am 3 6 mph 1023.8mb 50f
Thu 09/18 11:00pm 7 9 mph 1023.5mb 51f
10:00pm 14 16 mph 1022.7mb 53f
9:00pm 10 13 mph 1022.4mb 53f
8:00pm 8 13 mph 1022mb 54f
7:00pm 16 17 mph 1020.8mb 56f
6:00pm 15 17 mph 1020.6mb 57f
5:00pm 13 15 mph 1020.5mb 57f
4:00pm 13 15 mph 1020.3mb 58f
3:00pm 11 15 mph 1020.3mb 58f
2:00pm 16 20 mph 1020mb 57f
1:00pm 15 16 mph 1019.8mb 58f
12:00pm 17 20 mph 1019.3mb 58f
11:00am 18 21 mph 1018.8mb 59f
10:00am 11 15 mph 1018.8mb 60f
9:00am 8 10 mph 1018.7mb 62f
8:00am 10 14 mph 1018.1mb 60f
7:00am 6 8 mph 1017.8mb 55f
6:00am 8 10 mph 1017.1mb 53f
5:00am 8 11 mph 1016.5mb 52f
4:00am 8 11 mph 1016mb 52f
3:00am 8 11 mph 1015.5mb 54f
2:00am 8 10 mph 1015.6mb 53f
1:00am 9 10 mph 1015.7mb 53f
12:00am 9 10 mph 1015.5mb 54f
Wed 09/17 11:00pm 9 10 mph 1015.6mb 55f
10:00pm 8 10 mph 1015.5mb 56f
9:00pm 5 7 mph 1015.5mb 58f
8:00pm 8 10 mph 1015.4mb 63f
7:00pm 7 10 mph 1015.2mb 63f
6:00pm 11 14 mph 1015.1mb 63f
5:00pm 13 16 mph 1014.7mb 64f
4:00pm 21 23 mph 1014.6mb 64f
3:00pm 18 22 mph 1014.8mb 64f
2:00pm 11 17 mph 1015.1mb 64f
1:00pm 10 13 mph 1015.7mb 63f
12:00pm 9 13 mph 1016.2mb 63f
11:00am 9 13 mph 1016.7mb 63f
10:00am 2 3 mph 1017.4mb 61f
9:00am 5 6 mph 1017.7mb 58f
8:00am 3 7 mph 1017.7mb 56f
7:00am 8 10 mph 1017.7mb 53f
6:00am 10 11 mph 1017.6mb 51f